sensor_id;sensor_type;location;lat;lon;timestamp;P1;durP1;ratioP1;P2;durP2;ratioP2
4986;SDS011;12674;51.500;7.552;2023-07-08T00:01:34;7.78;;;2.60;;
4986;SDS011;12674;51.500;7.552;2023-07-08T00:03:37;11.98;;;2.40;;
4986;SDS011;12674;51.500;7.552;2023-07-08T00:05:39;3.25;;;2.10;;
4986;SDS011;12674;51.500;7.552;2023-07-08T00:07:43;4.22;;;2.63;;
4986;SDS011;12674;51.500;7.552;2023-07-08T00:09:46;4.68;;;2.22;;
4986;SDS011;12674;51.500;7.552;2023-07-08T00:11:49;8.68;;;2.35;;
4986;SDS011;12674;51.500;7.552;2023-07-08T00:13:54;4.40;;;2.63;;
4986;SDS011;12674;51.500;7.552;2023-07-08T00:15:57;5.47;;;2.75;;
4986;SDS011;12674;51.500;7.552;2023-07-08T00:18:00;7.30;;;3.28;;
4986;SDS011;12674;51.500;7.552;2023-07-08T00:20:09;5.68;;;3.35;;
4986;SDS011;12674;51.500;7.552;2023-07-08T00:22:14;5.57;;;2.75;;
4986;SDS011;12674;51.500;7.552;2023-07-08T00:24:17;5.20;;;2.70;;
4986;SDS011;12674;51.500;7.552;2023-07-08T00:26:21;4.90;;;2.97;;
4986;SDS011;12674;51.500;7.552;2023-07-08T00:28:25;5.13;;;3.40;;
4986;SDS011;12674;51.500;7.552;2023-07-08T00:30:30;4.70;;;3.38;;
4986;SDS011;12674;51.500;7.552;2023-07-08T00:32:34;3.72;;;2.92;;
4986;SDS011;12674;51.500;7.552;2023-07-08T00:34:43;4.03;;;2.60;;
4986;SDS011;12674;51.500;7.552;2023-07-08T00:36:46;7.25;;;3.10;;
4986;SDS011;12674;51.500;7.552;2023-07-08T00:38:49;3.30;;;2.85;;
4986;SDS011;12674;51.500;7.552;2023-07-08T00:40:52;3.30;;;2.67;;
4986;SDS011;12674;51.500;7.552;2023-07-08T00:43:01;9.02;;;3.33;;
4986;SDS011;12674;51.500;7.552;2023-07-08T00:45:10;5.22;;;2.92;;
4986;SDS011;12674;51.500;7.552;2023-07-08T00:47:20;7.85;;;2.85;;
4986;SDS011;12674;51.500;7.552;2023-07-08T00:49:26;6.32;;;3.28;;
4986;SDS011;12674;51.500;7.552;2023-07-08T00:51:32;4.90;;;3.20;;
4986;SDS011;12674;51.500;7.552;2023-07-08T00:53:35;4.47;;;2.90;;
4986;SDS011;12674;51.500;7.552;2023-07-08T00:55:39;5.32;;;3.03;;
4986;SDS011;12674;51.500;7.552;2023-07-08T00:57:42;6.03;;;2.80;;
4986;SDS011;12674;51.500;7.552;2023-07-08T00:59:48;6.13;;;3.20;;
4986;SDS011;12674;51.500;7.552;2023-07-08T01:01:53;5.60;;;3.20;;
4986;SDS011;12674;51.500;7.552;2023-07-08T01:04:00;15.23;;;3.03;;
4986;SDS011;12674;51.500;7.552;2023-07-08T01:06:05;6.35;;;3.08;;
4986;SDS011;12674;51.500;7.552;2023-07-08T01:08:08;13.25;;;3.38;;
4986;SDS011;12674;51.500;7.552;2023-07-08T01:10:14;8.27;;;3.47;;
4986;SDS011;12674;51.500;7.552;2023-07-08T01:12:19;4.80;;;3.17;;
4986;SDS011;12674;51.500;7.552;2023-07-08T01:14:24;6.43;;;3.30;;
4986;SDS011;12674;51.500;7.552;2023-07-08T01:16:29;6.80;;;3.47;;
4986;SDS011;12674;51.500;7.552;2023-07-08T01:18:35;7.88;;;3.92;;
4986;SDS011;12674;51.500;7.552;2023-07-08T01:20:40;4.32;;;3.42;;
4986;SDS011;12674;51.500;7.552;2023-07-08T01:22:44;5.63;;;3.22;;
4986;SDS011;12674;51.500;7.552;2023-07-08T01:24:47;5.85;;;3.50;;
4986;SDS011;12674;51.500;7.552;2023-07-08T01:26:50;6.97;;;2.78;;
4986;SDS011;12674;51.500;7.552;2023-07-08T01:28:53;10.48;;;3.03;;
4986;SDS011;12674;51.500;7.552;2023-07-08T01:30:57;8.43;;;3.10;;
4986;SDS011;12674;51.500;7.552;2023-07-08T01:33:05;5.85;;;3.00;;
4986;SDS011;12674;51.500;7.552;2023-07-08T01:35:13;8.13;;;3.08;;
4986;SDS011;12674;51.500;7.552;2023-07-08T01:37:16;5.75;;;3.30;;
4986;SDS011;12674;51.500;7.552;2023-07-08T01:39:21;10.63;;;3.17;;
4986;SDS011;12674;51.500;7.552;2023-07-08T01:41:25;5.63;;;3.00;;
4986;SDS011;12674;51.500;7.552;2023-07-08T01:43:28;5.93;;;3.40;;
4986;SDS011;12674;51.500;7.552;2023-07-08T01:45:34;7.35;;;3.10;;
4986;SDS011;12674;51.500;7.552;2023-07-08T01:47:39;7.88;;;3.50;;
4986;SDS011;12674;51.500;7.552;2023-07-08T01:49:43;8.07;;;3.47;;
4986;SDS011;12674;51.500;7.552;2023-07-08T01:51:48;7.15;;;3.35;;
4986;SDS011;12674;51.500;7.552;2023-07-08T01:53:51;4.40;;;3.45;;
4986;SDS011;12674;51.500;7.552;2023-07-08T01:55:55;8.30;;;3.42;;
4986;SDS011;12674;51.500;7.552;2023-07-08T01:57:59;10.55;;;3.13;;
4986;SDS011;12674;51.500;7.552;2023-07-08T02:00:03;9.63;;;3.30;;
4986;SDS011;12674;51.500;7.552;2023-07-08T02:02:13;4.47;;;3.10;;
4986;SDS011;12674;51.500;7.552;2023-07-08T02:04:16;7.75;;;4.10;;
4986;SDS011;12674;51.500;7.552;2023-07-08T02:06:19;3.92;;;3.10;;
4986;SDS011;12674;51.500;7.552;2023-07-08T02:08:22;10.80;;;3.95;;
4986;SDS011;12674;51.500;7.552;2023-07-08T02:10:25;5.30;;;3.20;;
4986;SDS011;12674;51.500;7.552;2023-07-08T02:12:30;10.23;;;3.20;;
4986;SDS011;12674;51.500;7.552;2023-07-08T02:14:32;4.25;;;3.03;;
4986;SDS011;12674;51.500;7.552;2023-07-08T02:16:35;6.53;;;3.67;;
4986;SDS011;12674;51.500;7.552;2023-07-08T02:18:38;7.13;;;3.58;;
4986;SDS011;12674;51.500;7.552;2023-07-08T02:20:42;4.18;;;2.90;;
4986;SDS011;12674;51.500;7.552;2023-07-08T02:22:45;8.65;;;3.65;;
4986;SDS011;12674;51.500;7.552;2023-07-08T02:24:48;4.53;;;3.83;;
4986;SDS011;12674;51.500;7.552;2023-07-08T02:26:51;6.88;;;3.33;;
4986;SDS011;12674;51.500;7.552;2023-07-08T02:28:55;10.23;;;3.78;;
4986;SDS011;12674;51.500;7.552;2023-07-08T02:31:01;6.28;;;3.80;;
4986;SDS011;12674;51.500;7.552;2023-07-08T02:33:04;7.90;;;4.10;;
4986;SDS011;12674;51.500;7.552;2023-07-08T02:35:08;5.75;;;3.45;;
4986;SDS011;12674;51.500;7.552;2023-07-08T02:37:13;11.70;;;4.28;;
4986;SDS011;12674;51.500;7.552;2023-07-08T02:39:16;8.88;;;3.50;;
4986;SDS011;12674;51.500;7.552;2023-07-08T02:41:19;5.82;;;3.63;;
4986;SDS011;12674;51.500;7.552;2023-07-08T02:43:22;12.27;;;3.80;;
4986;SDS011;12674;51.500;7.552;2023-07-08T02:45:26;6.03;;;3.47;;
4986;SDS011;12674;51.500;7.552;2023-07-08T02:47:29;11.68;;;4.50;;
4986;SDS011;12674;51.500;7.552;2023-07-08T02:49:32;5.90;;;3.92;;
4986;SDS011;12674;51.500;7.552;2023-07-08T02:51:35;4.97;;;3.67;;
4986;SDS011;12674;51.500;7.552;2023-07-08T02:53:38;6.05;;;3.40;;
4986;SDS011;12674;51.500;7.552;2023-07-08T02:55:41;8.93;;;3.47;;
4986;SDS011;12674;51.500;7.552;2023-07-08T02:57:44;5.75;;;3.33;;
4986;SDS011;12674;51.500;7.552;2023-07-08T02:59:47;4.00;;;3.35;;
4986;SDS011;12674;51.500;7.552;2023-07-08T03:01:51;6.97;;;3.42;;
4986;SDS011;12674;51.500;7.552;2023-07-08T03:03:54;5.75;;;3.60;;
4986;SDS011;12674;51.500;7.552;2023-07-08T03:06:02;7.22;;;3.60;;
4986;SDS011;12674;51.500;7.552;2023-07-08T03:08:07;4.10;;;3.25;;
4986;SDS011;12674;51.500;7.552;2023-07-08T03:10:10;12.40;;;4.15;;
4986;SDS011;12674;51.500;7.552;2023-07-08T03:12:13;4.95;;;3.80;;
4986;SDS011;12674;51.500;7.552;2023-07-08T03:14:16;4.72;;;4.00;;
4986;SDS011;12674;51.500;7.552;2023-07-08T03:16:19;4.18;;;2.97;;
4986;SDS011;12674;51.500;7.552;2023-07-08T03:18:23;5.38;;;3.17;;
4986;SDS011;12674;51.500;7.552;2023-07-08T03:20:28;5.63;;;3.55;;
4986;SDS011;12674;51.500;7.552;2023-07-08T03:22:33;4.53;;;3.10;;
4986;SDS011;12674;51.500;7.552;2023-07-08T03:24:36;5.05;;;3.03;;
4986;SDS011;12674;51.500;7.552;2023-07-08T03:26:50;5.57;;;3.78;;
4986;SDS011;12674;51.500;7.552;2023-07-08T03:28:58;11.85;;;3.05;;
4986;SDS011;12674;51.500;7.552;2023-07-08T03:31:03;14.13;;;3.20;;
4986;SDS011;12674;51.500;7.552;2023-07-08T03:33:06;5.60;;;3.70;;
4986;SDS011;12674;51.500;7.552;2023-07-08T03:35:11;4.00;;;2.70;;
4986;SDS011;12674;51.500;7.552;2023-07-08T03:37:14;5.57;;;3.13;;
4986;SDS011;12674;51.500;7.552;2023-07-08T03:39:18;4.35;;;3.25;;
4986;SDS011;12674;51.500;7.552;2023-07-08T03:41:22;5.30;;;2.92;;
4986;SDS011;12674;51.500;7.552;2023-07-08T03:43:25;3.95;;;2.97;;
4986;SDS011;12674;51.500;7.552;2023-07-08T03:45:28;6.43;;;2.92;;
4986;SDS011;12674;51.500;7.552;2023-07-08T03:47:31;6.20;;;2.72;;
4986;SDS011;12674;51.500;7.552;2023-07-08T03:49:35;4.25;;;3.05;;
4986;SDS011;12674;51.500;7.552;2023-07-08T03:51:40;6.28;;;3.50;;
4986;SDS011;12674;51.500;7.552;2023-07-08T03:53:43;3.60;;;2.70;;
4986;SDS011;12674;51.500;7.552;2023-07-08T03:55:47;6.75;;;2.95;;
4986;SDS011;12674;51.500;7.552;2023-07-08T03:57:50;5.63;;;3.25;;
4986;SDS011;12674;51.500;7.552;2023-07-08T03:59:54;5.63;;;3.33;;
4986;SDS011;12674;51.500;7.552;2023-07-08T04:01:57;7.25;;;3.10;;
4986;SDS011;12674;51.500;7.552;2023-07-08T04:04:02;4.60;;;3.25;;
4986;SDS011;12674;51.500;7.552;2023-07-08T04:06:08;5.18;;;2.67;;
4986;SDS011;12674;51.500;7.552;2023-07-08T04:08:13;7.20;;;3.42;;
4986;SDS011;12674;51.500;7.552;2023-07-08T04:10:16;10.85;;;2.97;;
4986;SDS011;12674;51.500;7.552;2023-07-08T04:12:19;7.18;;;2.83;;
4986;SDS011;12674;51.500;7.552;2023-07-08T04:14:21;6.43;;;3.38;;
4986;SDS011;12674;51.500;7.552;2023-07-08T04:16:24;4.95;;;2.60;;
4986;SDS011;12674;51.500;7.552;2023-07-08T04:18:29;5.75;;;3.17;;
4986;SDS011;12674;51.500;7.552;2023-07-08T04:20:32;4.38;;;2.67;;
4986;SDS011;12674;51.500;7.552;2023-07-08T04:22:37;3.85;;;2.47;;
4986;SDS011;12674;51.500;7.552;2023-07-08T04:24:42;4.75;;;2.78;;
4986;SDS011;12674;51.500;7.552;2023-07-08T04:26:45;7.22;;;2.58;;
4986;SDS011;12674;51.500;7.552;2023-07-08T04:28:49;6.97;;;3.47;;
4986;SDS011;12674;51.500;7.552;2023-07-08T04:30:52;6.75;;;2.70;;
4986;SDS011;12674;51.500;7.552;2023-07-08T04:32:55;5.70;;;2.70;;
4986;SDS011;12674;51.500;7.552;2023-07-08T04:34:58;5.60;;;3.10;;
4986;SDS011;12674;51.500;7.552;2023-07-08T04:37:02;6.40;;;2.53;;
4986;SDS011;12674;51.500;7.552;2023-07-08T04:39:06;7.70;;;4.10;;
4986;SDS011;12674;51.500;7.552;2023-07-08T04:41:11;3.95;;;2.35;;
4986;SDS011;12674;51.500;7.552;2023-07-08T04:43:14;10.30;;;3.50;;
4986;SDS011;12674;51.500;7.552;2023-07-08T04:45:17;6.18;;;3.47;;
4986;SDS011;12674;51.500;7.552;2023-07-08T04:47:20;5.60;;;2.90;;
4986;SDS011;12674;51.500;7.552;2023-07-08T04:49:24;10.45;;;2.80;;
4986;SDS011;12674;51.500;7.552;2023-07-08T04:51:33;14.93;;;3.40;;
4986;SDS011;12674;51.500;7.552;2023-07-08T04:53:36;4.65;;;3.30;;
4986;SDS011;12674;51.500;7.552;2023-07-08T04:55:39;10.60;;;3.80;;
4986;SDS011;12674;51.500;7.552;2023-07-08T04:57:45;12.35;;;4.53;;
4986;SDS011;12674;51.500;7.552;2023-07-08T04:59:48;8.15;;;3.28;;
4986;SDS011;12674;51.500;7.552;2023-07-08T05:01:51;9.10;;;4.15;;
4986;SDS011;12674;51.500;7.552;2023-07-08T05:03:54;6.15;;;3.90;;
4986;SDS011;12674;51.500;7.552;2023-07-08T05:05:57;9.25;;;3.72;;
4986;SDS011;12674;51.500;7.552;2023-07-08T05:08:00;5.82;;;4.22;;
4986;SDS011;12674;51.500;7.552;2023-07-08T05:10:04;7.40;;;3.47;;
4986;SDS011;12674;51.500;7.552;2023-07-08T05:12:08;4.78;;;3.72;;
4986;SDS011;12674;51.500;7.552;2023-07-08T05:14:13;8.20;;;3.58;;
4986;SDS011;12674;51.500;7.552;2023-07-08T05:16:16;4.55;;;3.03;;
4986;SDS011;12674;51.500;7.552;2023-07-08T05:18:19;5.75;;;3.78;;
4986;SDS011;12674;51.500;7.552;2023-07-08T05:20:22;8.93;;;3.83;;
4986;SDS011;12674;51.500;7.552;2023-07-08T05:22:25;7.35;;;3.70;;
4986;SDS011;12674;51.500;7.552;2023-07-08T05:24:28;4.75;;;3.10;;
4986;SDS011;12674;51.500;7.552;2023-07-08T05:26:31;4.35;;;3.08;;
4986;SDS011;12674;51.500;7.552;2023-07-08T05:28:35;10.27;;;3.72;;
4986;SDS011;12674;51.500;7.552;2023-07-08T05:30:40;9.50;;;3.20;;
4986;SDS011;12674;51.500;7.552;2023-07-08T05:32:44;7.13;;;3.70;;
4986;SDS011;12674;51.500;7.552;2023-07-08T05:34:47;16.52;;;3.97;;
4986;SDS011;12674;51.500;7.552;2023-07-08T05:36:51;13.15;;;3.67;;
4986;SDS011;12674;51.500;7.552;2023-07-08T05:38:54;9.00;;;3.33;;
4986;SDS011;12674;51.500;7.552;2023-07-08T05:40:57;5.07;;;3.58;;
4986;SDS011;12674;51.500;7.552;2023-07-08T05:43:01;4.93;;;3.03;;
4986;SDS011;12674;51.500;7.552;2023-07-08T05:45:04;9.25;;;2.85;;
4986;SDS011;12674;51.500;7.552;2023-07-08T05:47:10;6.88;;;3.25;;
4986;SDS011;12674;51.500;7.552;2023-07-08T05:49:13;6.97;;;3.03;;
4986;SDS011;12674;51.500;7.552;2023-07-08T05:51:16;4.05;;;2.88;;
4986;SDS011;12674;51.500;7.552;2023-07-08T05:53:19;6.68;;;3.05;;
4986;SDS011;12674;51.500;7.552;2023-07-08T05:55:22;5.78;;;3.30;;
4986;SDS011;12674;51.500;7.552;2023-07-08T05:57:25;4.70;;;3.13;;
4986;SDS011;12674;51.500;7.552;2023-07-08T05:59:28;7.65;;;2.90;;
4986;SDS011;12674;51.500;7.552;2023-07-08T06:01:31;5.65;;;3.00;;
4986;SDS011;12674;51.500;7.552;2023-07-08T06:03:36;3.72;;;3.20;;
4986;SDS011;12674;51.500;7.552;2023-07-08T06:05:39;8.35;;;3.50;;
4986;SDS011;12674;51.500;7.552;2023-07-08T06:07:43;7.25;;;3.58;;
4986;SDS011;12674;51.500;7.552;2023-07-08T06:09:46;6.35;;;3.30;;
4986;SDS011;12674;51.500;7.552;2023-07-08T06:11:49;4.95;;;3.00;;
4986;SDS011;12674;51.500;7.552;2023-07-08T06:13:52;5.75;;;3.47;;
4986;SDS011;12674;51.500;7.552;2023-07-08T06:15:55;9.10;;;3.50;;
4986;SDS011;12674;51.500;7.552;2023-07-08T06:17:58;4.85;;;3.17;;
4986;SDS011;12674;51.500;7.552;2023-07-08T06:20:06;3.78;;;3.03;;
4986;SDS011;12674;51.500;7.552;2023-07-08T06:22:10;6.65;;;2.83;;
4986;SDS011;12674;51.500;7.552;2023-07-08T06:24:33;3.08;;;2.78;;
4986;SDS011;12674;51.500;7.552;2023-07-08T06:26:35;5.65;;;2.78;;
4986;SDS011;12674;51.500;7.552;2023-07-08T06:28:38;6.45;;;3.65;;
4986;SDS011;12674;51.500;7.552;2023-07-08T06:30:41;10.57;;;3.40;;
4986;SDS011;12674;51.500;7.552;2023-07-08T06:32:44;12.25;;;4.10;;
4986;SDS011;12674;51.500;7.552;2023-07-08T06:34:48;9.15;;;3.85;;
4986;SDS011;12674;51.500;7.552;2023-07-08T06:36:52;12.77;;;3.55;;
4986;SDS011;12674;51.500;7.552;2023-07-08T06:38:55;6.72;;;3.17;;
4986;SDS011;12674;51.500;7.552;2023-07-08T06:40:58;4.13;;;3.33;;
4986;SDS011;12674;51.500;7.552;2023-07-08T06:43:02;6.00;;;3.67;;
4986;SDS011;12674;51.500;7.552;2023-07-08T06:45:31;11.10;;;3.58;;
4986;SDS011;12674;51.500;7.552;2023-07-08T06:47:34;7.55;;;4.05;;
4986;SDS011;12674;51.500;7.552;2023-07-08T06:49:37;7.65;;;3.30;;
4986;SDS011;12674;51.500;7.552;2023-07-08T06:51:40;8.85;;;3.85;;
4986;SDS011;12674;51.500;7.552;2023-07-08T06:53:45;7.28;;;3.30;;
4986;SDS011;12674;51.500;7.552;2023-07-08T06:55:49;5.00;;;3.17;;
4986;SDS011;12674;51.500;7.552;2023-07-08T06:57:52;3.70;;;3.20;;
4986;SDS011;12674;51.500;7.552;2023-07-08T06:59:55;5.57;;;3.40;;
4986;SDS011;12674;51.500;7.552;2023-07-08T07:01:58;3.35;;;2.90;;
4986;SDS011;12674;51.500;7.552;2023-07-08T07:04:01;5.47;;;3.50;;
4986;SDS011;12674;51.500;7.552;2023-07-08T07:06:04;10.30;;;3.80;;
4986;SDS011;12674;51.500;7.552;2023-07-08T07:08:07;17.83;;;3.30;;
4986;SDS011;12674;51.500;7.552;2023-07-08T07:10:12;4.00;;;3.33;;
4986;SDS011;12674;51.500;7.552;2023-07-08T07:12:14;8.15;;;3.67;;
4986;SDS011;12674;51.500;7.552;2023-07-08T07:14:17;6.15;;;3.63;;
4986;SDS011;12674;51.500;7.552;2023-07-08T07:16:23;5.15;;;4.40;;
4986;SDS011;12674;51.500;7.552;2023-07-08T07:18:26;7.00;;;3.45;;
4986;SDS011;12674;51.500;7.552;2023-07-08T07:20:29;4.13;;;3.25;;
4986;SDS011;12674;51.500;7.552;2023-07-08T07:22:32;8.02;;;3.25;;
4986;SDS011;12674;51.500;7.552;2023-07-08T07:24:35;4.97;;;3.85;;
4986;SDS011;12674;51.500;7.552;2023-07-08T07:26:39;9.57;;;3.40;;
4986;SDS011;12674;51.500;7.552;2023-07-08T07:28:43;5.00;;;3.80;;
4986;SDS011;12674;51.500;7.552;2023-07-08T07:30:46;4.68;;;3.88;;
4986;SDS011;12674;51.500;7.552;2023-07-08T07:32:49;5.85;;;3.55;;
4986;SDS011;12674;51.500;7.552;2023-07-08T07:34:52;5.57;;;3.67;;
4986;SDS011;12674;51.500;7.552;2023-07-08T07:36:54;7.53;;;3.00;;
4986;SDS011;12674;51.500;7.552;2023-07-08T07:38:58;7.15;;;4.13;;
4986;SDS011;12674;51.500;7.552;2023-07-08T07:41:01;5.88;;;3.60;;
4986;SDS011;12674;51.500;7.552;2023-07-08T07:43:09;4.07;;;3.20;;
4986;SDS011;12674;51.500;7.552;2023-07-08T07:45:12;4.68;;;3.95;;
4986;SDS011;12674;51.500;7.552;2023-07-08T07:47:15;6.82;;;3.70;;
4986;SDS011;12674;51.500;7.552;2023-07-08T07:49:18;5.00;;;3.90;;
4986;SDS011;12674;51.500;7.552;2023-07-08T07:51:21;4.28;;;3.75;;
4986;SDS011;12674;51.500;7.552;2023-07-08T07:53:24;5.80;;;4.13;;
4986;SDS011;12674;51.500;7.552;2023-07-08T07:55:27;4.55;;;3.75;;
4986;SDS011;12674;51.500;7.552;2023-07-08T07:57:30;7.53;;;3.65;;
4986;SDS011;12674;51.500;7.552;2023-07-08T07:59:34;6.20;;;4.28;;
4986;SDS011;12674;51.500;7.552;2023-07-08T08:01:37;9.32;;;4.13;;
4986;SDS011;12674;51.500;7.552;2023-07-08T08:03:40;5.78;;;4.22;;
4986;SDS011;12674;51.500;7.552;2023-07-08T08:05:43;6.38;;;3.88;;
4986;SDS011;12674;51.500;7.552;2023-07-08T08:07:46;5.88;;;3.90;;
4986;SDS011;12674;51.500;7.552;2023-07-08T08:09:49;6.93;;;4.03;;
4986;SDS011;12674;51.500;7.552;2023-07-08T08:11:52;5.28;;;3.80;;
4986;SDS011;12674;51.500;7.552;2023-07-08T08:13:56;7.47;;;3.75;;
4986;SDS011;12674;51.500;7.552;2023-07-08T08:16:01;6.38;;;4.00;;
4986;SDS011;12674;51.500;7.552;2023-07-08T08:18:05;6.20;;;4.28;;
4986;SDS011;12674;51.500;7.552;2023-07-08T08:20:08;4.15;;;3.50;;
4986;SDS011;12674;51.500;7.552;2023-07-08T08:22:11;11.77;;;4.28;;
4986;SDS011;12674;51.500;7.552;2023-07-08T08:24:15;4.13;;;3.72;;
4986;SDS011;12674;51.500;7.552;2023-07-08T08:26:18;6.78;;;4.10;;
4986;SDS011;12674;51.500;7.552;2023-07-08T08:28:21;12.73;;;4.28;;
4986;SDS011;12674;51.500;7.552;2023-07-08T08:30:24;7.75;;;4.60;;
4986;SDS011;12674;51.500;7.552;2023-07-08T08:32:28;4.75;;;4.25;;
4986;SDS011;12674;51.500;7.552;2023-07-08T08:34:31;7.90;;;4.45;;
4986;SDS011;12674;51.500;7.552;2023-07-08T08:36:34;10.70;;;5.13;;
4986;SDS011;12674;51.500;7.552;2023-07-08T08:38:37;5.05;;;4.50;;
4986;SDS011;12674;51.500;7.552;2023-07-08T08:40:40;4.38;;;3.97;;
4986;SDS011;12674;51.500;7.552;2023-07-08T08:42:44;6.90;;;4.28;;
4986;SDS011;12674;51.500;7.552;2023-07-08T08:44:50;9.48;;;4.35;;
4986;SDS011;12674;51.500;7.552;2023-07-08T08:46:54;8.63;;;4.95;;
4986;SDS011;12674;51.500;7.552;2023-07-08T08:49:04;13.85;;;4.80;;
4986;SDS011;12674;51.500;7.552;2023-07-08T08:51:12;6.05;;;4.05;;
4986;SDS011;12674;51.500;7.552;2023-07-08T08:53:17;6.40;;;4.47;;
4986;SDS011;12674;51.500;7.552;2023-07-08T08:55:21;5.03;;;4.53;;
4986;SDS011;12674;51.500;7.552;2023-07-08T08:57:32;4.47;;;4.07;;
4986;SDS011;12674;51.500;7.552;2023-07-08T08:59:42;4.90;;;4.47;;
4986;SDS011;12674;51.500;7.552;2023-07-08T09:01:46;7.65;;;5.25;;
4986;SDS011;12674;51.500;7.552;2023-07-08T09:03:50;6.95;;;5.57;;
4986;SDS011;12674;51.500;7.552;2023-07-08T09:05:56;8.07;;;4.75;;
4986;SDS011;12674;51.500;7.552;2023-07-08T09:08:04;6.15;;;5.55;;
4986;SDS011;12674;51.500;7.552;2023-07-08T09:10:13;6.80;;;5.00;;
4986;SDS011;12674;51.500;7.552;2023-07-08T09:12:22;6.18;;;5.50;;
4986;SDS011;12674;51.500;7.552;2023-07-08T09:14:29;5.78;;;5.13;;
4986;SDS011;12674;51.500;7.552;2023-07-08T09:16:36;5.75;;;5.13;;
4986;SDS011;12674;51.500;7.552;2023-07-08T09:18:45;9.80;;;5.43;;
4986;SDS011;12674;51.500;7.552;2023-07-08T09:21:01;7.00;;;5.20;;
4986;SDS011;12674;51.500;7.552;2023-07-08T09:23:17;10.85;;;5.70;;
4986;SDS011;12674;51.500;7.552;2023-07-08T09:25:24;14.95;;;6.10;;
4986;SDS011;12674;51.500;7.552;2023-07-08T09:27:29;7.65;;;5.47;;
4986;SDS011;12674;51.500;7.552;2023-07-08T09:29:35;6.63;;;4.85;;
4986;SDS011;12674;51.500;7.552;2023-07-08T09:31:39;5.78;;;4.97;;
4986;SDS011;12674;51.500;7.552;2023-07-08T09:33:44;8.27;;;4.82;;
4986;SDS011;12674;51.500;7.552;2023-07-08T09:35:47;6.32;;;5.40;;
4986;SDS011;12674;51.500;7.552;2023-07-08T09:37:52;10.13;;;5.75;;
4986;SDS011;12674;51.500;7.552;2023-07-08T09:39:56;10.40;;;6.55;;
4986;SDS011;12674;51.500;7.552;2023-07-08T09:42:02;6.78;;;5.10;;
4986;SDS011;12674;51.500;7.552;2023-07-08T09:44:21;6.45;;;5.85;;
4986;SDS011;12674;51.500;7.552;2023-07-08T09:46:28;12.93;;;5.13;;
4986;SDS011;12674;51.500;7.552;2023-07-08T09:48:33;7.25;;;5.20;;
4986;SDS011;12674;51.500;7.552;2023-07-08T09:50:37;8.30;;;4.85;;
4986;SDS011;12674;51.500;7.552;2023-07-08T09:52:40;10.95;;;5.63;;
4986;SDS011;12674;51.500;7.552;2023-07-08T09:54:45;6.55;;;5.30;;
4986;SDS011;12674;51.500;7.552;2023-07-08T09:56:52;10.05;;;5.03;;
4986;SDS011;12674;51.500;7.552;2023-07-08T09:58:58;9.82;;;5.47;;
4986;SDS011;12674;51.500;7.552;2023-07-08T10:01:02;9.85;;;5.10;;
4986;SDS011;12674;51.500;7.552;2023-07-08T10:03:13;6.28;;;4.72;;
4986;SDS011;12674;51.500;7.552;2023-07-08T10:05:19;16.45;;;6.32;;
4986;SDS011;12674;51.500;7.552;2023-07-08T10:07:25;5.55;;;4.82;;
4986;SDS011;12674;51.500;7.552;2023-07-08T10:09:30;10.98;;;4.68;;
4986;SDS011;12674;51.500;7.552;2023-07-08T10:11:35;7.38;;;5.47;;
4986;SDS011;12674;51.500;7.552;2023-07-08T10:13:40;14.77;;;6.45;;
4986;SDS011;12674;51.500;7.552;2023-07-08T10:15:46;10.07;;;5.25;;
4986;SDS011;12674;51.500;7.552;2023-07-08T10:17:50;7.72;;;5.55;;
4986;SDS011;12674;51.500;7.552;2023-07-08T10:19:54;6.95;;;5.22;;
4986;SDS011;12674;51.500;7.552;2023-07-08T10:22:01;5.07;;;4.50;;
4986;SDS011;12674;51.500;7.552;2023-07-08T10:24:16;5.72;;;5.05;;
4986;SDS011;12674;51.500;7.552;2023-07-08T10:26:25;5.57;;;4.70;;
4986;SDS011;12674;51.500;7.552;2023-07-08T10:28:33;6.07;;;4.90;;
4986;SDS011;12674;51.500;7.552;2023-07-08T10:30:42;7.55;;;5.20;;
4986;SDS011;12674;51.500;7.552;2023-07-08T10:35:16;7.78;;;5.47;;
4986;SDS011;12674;51.500;7.552;2023-07-08T10:37:22;9.07;;;5.03;;
4986;SDS011;12674;51.500;7.552;2023-07-08T10:39:47;7.90;;;4.03;;
4986;SDS011;12674;51.500;7.552;2023-07-08T10:41:59;6.20;;;4.00;;
4986;SDS011;12674;51.500;7.552;2023-07-08T10:44:08;4.88;;;3.97;;
4986;SDS011;12674;51.500;7.552;2023-07-08T10:46:19;10.68;;;4.18;;
4986;SDS011;12674;51.500;7.552;2023-07-08T10:48:35;7.63;;;4.32;;
4986;SDS011;12674;51.500;7.552;2023-07-08T10:50:52;5.45;;;3.72;;
4986;SDS011;12674;51.500;7.552;2023-07-08T10:53:04;7.20;;;4.10;;
4986;SDS011;12674;51.500;7.552;2023-07-08T10:55:19;7.00;;;4.47;;
4986;SDS011;12674;51.500;7.552;2023-07-08T10:57:46;6.18;;;4.40;;
4986;SDS011;12674;51.500;7.552;2023-07-08T11:00:02;5.40;;;4.78;;
4986;SDS011;12674;51.500;7.552;2023-07-08T11:02:19;8.35;;;4.72;;
4986;SDS011;12674;51.500;7.552;2023-07-08T11:04:36;7.72;;;4.07;;
4986;SDS011;12674;51.500;7.552;2023-07-08T11:06:46;4.60;;;4.20;;
4986;SDS011;12674;51.500;7.552;2023-07-08T11:08:53;5.70;;;4.25;;
4986;SDS011;12674;51.500;7.552;2023-07-08T11:10:58;5.70;;;4.25;;
4986;SDS011;12674;51.500;7.552;2023-07-08T11:13:17;6.10;;;3.90;;
4986;SDS011;12674;51.500;7.552;2023-07-08T11:15:23;4.63;;;3.72;;
4986;SDS011;12674;51.500;7.552;2023-07-08T11:17:33;7.70;;;3.45;;
4986;SDS011;12674;51.500;7.552;2023-07-08T11:19:40;8.88;;;3.90;;
4986;SDS011;12674;51.500;7.552;2023-07-08T11:21:46;5.57;;;4.05;;
4986;SDS011;12674;51.500;7.552;2023-07-08T11:23:51;9.23;;;4.60;;
4986;SDS011;12674;51.500;7.552;2023-07-08T11:26:00;5.28;;;3.88;;
4986;SDS011;12674;51.500;7.552;2023-07-08T11:28:11;6.38;;;4.13;;
4986;SDS011;12674;51.500;7.552;2023-07-08T11:30:16;7.72;;;4.03;;
4986;SDS011;12674;51.500;7.552;2023-07-08T11:32:21;9.60;;;4.90;;
4986;SDS011;12674;51.500;7.552;2023-07-08T11:34:27;8.20;;;4.60;;
4986;SDS011;12674;51.500;7.552;2023-07-08T11:36:30;9.02;;;3.97;;
4986;SDS011;12674;51.500;7.552;2023-07-08T11:38:35;7.10;;;4.40;;
4986;SDS011;12674;51.500;7.552;2023-07-08T11:40:49;5.40;;;4.05;;
4986;SDS011;12674;51.500;7.552;2023-07-08T11:42:59;6.63;;;4.32;;
4986;SDS011;12674;51.500;7.552;2023-07-08T11:45:06;7.35;;;4.38;;
4986;SDS011;12674;51.500;7.552;2023-07-08T11:47:31;5.40;;;3.92;;
4986;SDS011;12674;51.500;7.552;2023-07-08T11:49:38;5.10;;;3.63;;
4986;SDS011;12674;51.500;7.552;2023-07-08T11:51:44;8.00;;;4.10;;
4986;SDS011;12674;51.500;7.552;2023-07-08T11:53:49;5.18;;;3.63;;
4986;SDS011;12674;51.500;7.552;2023-07-08T11:55:55;5.43;;;4.10;;
4986;SDS011;12674;51.500;7.552;2023-07-08T11:57:59;5.32;;;4.13;;
4986;SDS011;12674;51.500;7.552;2023-07-08T12:00:10;8.13;;;4.60;;
4986;SDS011;12674;51.500;7.552;2023-07-08T12:02:16;5.80;;;3.97;;
4986;SDS011;12674;51.500;7.552;2023-07-08T12:04:26;8.18;;;3.97;;
4986;SDS011;12674;51.500;7.552;2023-07-08T12:06:40;7.72;;;3.83;;
4986;SDS011;12674;51.500;7.552;2023-07-08T12:08:45;4.55;;;3.92;;
4986;SDS011;12674;51.500;7.552;2023-07-08T12:10:50;9.95;;;3.60;;
4986;SDS011;12674;51.500;7.552;2023-07-08T12:12:53;5.80;;;4.22;;
4986;SDS011;12674;51.500;7.552;2023-07-08T12:14:58;5.50;;;4.07;;
4986;SDS011;12674;51.500;7.552;2023-07-08T12:17:08;10.25;;;4.20;;
4986;SDS011;12674;51.500;7.552;2023-07-08T12:19:15;12.05;;;4.18;;
4986;SDS011;12674;51.500;7.552;2023-07-08T12:21:22;5.90;;;4.13;;
4986;SDS011;12674;51.500;7.552;2023-07-08T12:23:25;6.65;;;3.97;;
4986;SDS011;12674;51.500;7.552;2023-07-08T12:25:30;7.38;;;4.22;;
4986;SDS011;12674;51.500;7.552;2023-07-08T12:27:36;6.88;;;4.15;;
4986;SDS011;12674;51.500;7.552;2023-07-08T12:29:39;4.20;;;3.80;;
4986;SDS011;12674;51.500;7.552;2023-07-08T12:31:43;6.32;;;4.47;;
4986;SDS011;12674;51.500;7.552;2023-07-08T12:33:46;10.43;;;3.92;;
4986;SDS011;12674;51.500;7.552;2023-07-08T12:35:50;6.63;;;4.93;;
4986;SDS011;12674;51.500;7.552;2023-07-08T12:37:56;5.13;;;3.42;;
4986;SDS011;12674;51.500;7.552;2023-07-08T12:40:01;7.72;;;4.28;;
4986;SDS011;12674;51.500;7.552;2023-07-08T12:42:11;7.70;;;4.25;;
4986;SDS011;12674;51.500;7.552;2023-07-08T12:44:15;6.65;;;4.25;;
4986;SDS011;12674;51.500;7.552;2023-07-08T12:46:21;6.10;;;4.07;;
4986;SDS011;12674;51.500;7.552;2023-07-08T12:48:25;4.45;;;3.53;;